Time;durP1;ratioP1;P1;durP2;ratioP2;P2;SDS_P1;SDS_P2;PMS_P1;PMS_P2;Temp;Humidity;BMP_temperature;BMP_pressure;BME280_temperature;BME280_humidity;BME280_pressure;Samples;Min_cycle;Max_cycle;Signal;HPM_P1;HPM_P2
2022/10/22 00:00:45;;;;;;;7.30;4.55;;;;;;;11.97;100.00;100798.13;5068377;28;20030;-64
2022/10/22 00:03:10;;;;;;;9.43;4.82;;;;;;;11.94;100.00;100785.06;5062075;28;20033;-63
2022/10/22 00:05:36;;;;;;;9.23;4.10;;;;;;;11.91;100.00;100794.50;5060650;28;20024;-64
2022/10/22 00:08:01;;;;;;;8.23;4.57;;;;;;;11.87;100.00;100799.59;5065654;28;20023;-63
2022/10/22 00:10:26;;;;;;;11.65;4.95;;;;;;;11.83;100.00;100795.19;5068181;28;20020;-63
2022/10/22 00:12:52;;;;;;;8.15;4.25;;;;;;;11.81;100.00;100789.06;5067574;28;20436;-66
2022/10/22 00:15:17;;;;;;;7.40;4.47;;;;;;;11.80;100.00;100789.03;5066256;28;20031;-63
2022/10/22 00:17:43;;;;;;;6.15;4.45;;;;;;;11.79;100.00;100782.06;5066991;28;20056;-63
2022/10/22 00:20:08;;;;;;;11.73;5.07;;;;;;;11.79;100.00;100784.66;5068044;28;20412;-64
2022/10/22 00:22:33;;;;;;;7.85;5.55;;;;;;;11.76;100.00;100781.13;5066802;28;20036;-64
2022/10/22 00:24:59;;;;;;;8.70;4.50;;;;;;;11.77;100.00;100780.31;5060928;28;20074;-64
2022/10/22 00:27:24;;;;;;;6.85;5.13;;;;;;;11.76;100.00;100781.13;5060099;28;20024;-63
2022/10/22 00:29:49;;;;;;;6.15;5.38;;;;;;;11.75;100.00;100788.88;5066821;28;20457;-63
2022/10/22 00:32:15;;;;;;;7.28;5.13;;;;;;;11.74;100.00;100788.03;5067781;28;20108;-63
2022/10/22 00:34:40;;;;;;;9.40;5.88;;;;;;;11.74;100.00;100787.16;5066978;28;20027;-63
2022/10/22 00:37:06;;;;;;;10.20;5.63;;;;;;;11.73;100.00;100785.38;5067549;28;20032;-63
2022/10/22 00:39:31;;;;;;;7.22;5.72;;;;;;;11.73;100.00;100790.56;5066675;28;20484;-64
2022/10/22 00:41:57;;;;;;;11.10;5.90;;;;;;;11.72;100.00;100787.13;5067130;28;20067;-64
2022/10/22 00:45:12;;;;;;;9.63;6.30;;;;;;;11.72;100.00;100786.22;5066949;28;20062;-63
2022/10/22 00:47:47;;;;;;;10.02;5.65;;;;;;;11.70;100.00;100787.91;5054015;28;20620;-63
2022/10/22 00:50:27;;;;;;;7.25;6.15;;;;;;;11.70;100.00;100786.19;5067225;28;20335;-64
2022/10/22 00:52:53;;;;;;;10.20;5.78;;;;;;;11.70;100.00;100795.69;5054476;28;20435;-63
2022/10/22 00:55:20;;;;;;;7.13;6.13;;;;;;;11.68;100.00;100790.47;5067091;28;20024;-63
2022/10/22 00:57:46;;;;;;;10.55;6.05;;;;;;;11.67;100.00;100786.13;5080968;28;20395;-63
2022/10/22 01:00:12;;;;;;;7.32;5.75;;;;;;;11.68;100.00;100793.06;5066799;28;20031;-63
2022/10/22 01:02:37;;;;;;;10.02;6.15;;;;;;;11.65;100.00;100795.56;5069354;28;20094;-64
2022/10/22 01:05:02;;;;;;;6.85;5.70;;;;;;;11.63;100.00;100792.06;5077725;28;20060;-63
2022/10/22 01:07:28;;;;;;;12.00;6.28;;;;;;;11.62;100.00;100796.34;5078846;28;20020;-64
2022/10/22 01:10:10;;;;;;;9.93;6.35;;;;;;;11.61;100.00;100786.81;5073580;28;20523;-64
2022/10/22 01:13:14;;;;;;;10.32;6.07;;;;;;;11.61;100.00;100780.75;5083765;28;20101;-63
2022/10/22 01:15:59;;;;;;;9.65;6.28;;;;;;;11.61;100.00;100775.56;5057034;28;20028;-63
2022/10/22 01:18:33;;;;;;;10.55;6.28;;;;;;;11.63;100.00;100784.25;5085811;28;20032;-63
2022/10/22 01:21:27;;;;;;;11.90;6.15;;;;;;;11.63;100.00;100779.97;5086132;28;20038;-64
2022/10/22 01:23:59;;;;;;;7.72;6.38;;;;;;;11.65;100.00;100782.59;5072281;28;20036;-64
2022/10/22 01:26:45;;;;;;;11.43;6.63;;;;;;;11.65;100.00;100777.41;5082921;28;20089;-64
2022/10/22 01:29:15;;;;;;;9.88;6.85;;;;;;;11.64;100.00;100778.22;5078960;28;20028;-64
2022/10/22 01:31:46;;;;;;;12.38;6.70;;;;;;;11.64;100.00;100780.81;5067803;28;20418;-64
2022/10/22 01:34:17;;;;;;;8.15;6.45;;;;;;;11.64;100.00;100786.91;5066343;28;20479;-64
2022/10/22 01:36:44;;;;;;;10.10;6.60;;;;;;;11.65;100.00;100787.78;5081263;28;20170;-64
2022/10/22 01:39:11;;;;;;;8.20;6.25;;;;;;;11.65;100.00;100785.19;5076044;28;20293;-65
2022/10/22 01:41:38;;;;;;;9.68;6.75;;;;;;;11.67;100.00;100778.31;5085823;28;20020;-64
2022/10/22 01:44:04;;;;;;;7.95;6.75;;;;;;;11.68;100.00;100772.28;5078621;28;20037;-64
2022/10/22 01:46:29;;;;;;;8.75;6.55;;;;;;;11.70;100.00;100769.72;5080923;28;20449;-65
2022/10/22 01:49:21;;;;;;;12.88;6.72;;;;;;;11.71;100.00;100769.75;5060912;28;20415;-64
2022/10/22 01:52:11;;;;;;;13.70;6.30;;;;;;;11.72;100.00;100768.94;5062680;28;20543;-63
2022/10/22 01:54:50;;;;;;;8.05;5.97;;;;;;;11.74;100.00;100776.75;5063843;28;20070;-64
2022/10/22 01:57:22;;;;;;;10.00;6.82;;;;;;;11.73;100.00;100775.88;5051747;28;20021;-64
2022/10/22 01:59:58;;;;;;;7.38;6.22;;;;;;;11.73;100.00;100775.88;5066880;28;20024;-64
2022/10/22 02:02:30;;;;;;;11.25;6.70;;;;;;;11.74;100.00;100781.97;5061083;28;20104;-64
2022/10/22 02:05:04;;;;;;;10.88;6.03;;;;;;;11.73;100.00;100778.47;5058496;28;20029;-64
2022/10/22 02:07:36;;;;;;;11.18;6.65;;;;;;;11.74;100.00;100782.84;5046961;28;20562;-64
2022/10/22 02:10:03;;;;;;;10.85;6.22;;;;;;;11.74;100.00;100782.84;5045932;28;20086;-63
2022/10/22 02:12:31;;;;;;;10.63;6.88;;;;;;;11.74;100.00;100781.97;5064358;28;20523;-64
2022/10/22 02:14:57;;;;;;;9.73;6.35;;;;;;;11.73;100.00;100781.06;5076451;28;20277;-63
2022/10/22 02:17:25;;;;;;;11.85;7.07;;;;;;;11.73;100.00;100783.66;5086096;28;20031;-65
2022/10/22 02:19:56;;;;;;;7.47;5.70;;;;;;;11.73;100.00;100781.06;5070133;28;20056;-64
2022/10/22 02:22:23;;;;;;;12.57;6.10;;;;;;;11.72;100.00;100784.50;5070188;28;20025;-64
2022/10/22 02:24:49;;;;;;;15.00;6.65;;;;;;;11.72;100.00;100783.63;5083524;28;20037;-64
2022/10/22 02:27:29;;;;;;;10.25;6.53;;;;;;;11.71;100.00;100787.06;5082768;28;20035;-64
2022/10/22 02:30:17;;;;;;;9.00;6.45;;;;;;;11.70;100.00;100775.81;5063347;28;20076;-64
2022/10/22 02:32:47;;;;;;;7.28;5.60;;;;;;;11.70;100.00;100781.00;5079160;28;20602;-64
2022/10/22 02:35:16;;;;;;;12.40;6.30;;;;;;;11.67;100.00;100780.03;5069736;28;20032;-64
2022/10/22 02:37:42;;;;;;;12.13;6.82;;;;;;;11.66;100.00;100779.16;5055289;28;20039;-64
2022/10/22 02:40:09;;;;;;;10.52;6.13;;;;;;;11.65;100.00;100778.28;5062796;28;20028;-63
2022/10/22 02:42:36;;;;;;;11.27;7.28;;;;;;;11.63;100.00;100779.06;5048838;28;20037;-64
2022/10/22 02:45:01;;;;;;;12.85;6.20;;;;;;;11.60;100.00;100782.44;5068215;28;20040;-64
2022/10/22 02:47:27;;;;;;;10.85;5.90;;;;;;;11.59;100.00;100785.91;5070066;28;20123;-64
2022/10/22 02:49:52;;;;;;;9.32;6.18;;;;;;;11.58;100.00;100791.06;5052877;28;20349;-64
2022/10/22 02:52:17;;;;;;;11.07;6.60;;;;;;;11.56;100.00;100782.34;5057785;28;20033;-64
2022/10/22 02:54:42;;;;;;;9.68;7.25;;;;;;;11.56;100.00;100787.53;5054923;28;20021;-63
2022/10/22 02:57:08;;;;;;;9.25;6.22;;;;;;;11.56;100.00;100795.31;5063691;28;20461;-64
2022/10/22 02:59:33;;;;;;;12.77;6.43;;;;;;;11.53;100.00;100793.53;5049664;28;20150;-63
2022/10/22 03:01:58;;;;;;;12.75;6.25;;;;;;;11.51;100.00;100793.47;5063360;28;20145;-64
2022/10/22 03:04:24;;;;;;;9.75;6.32;;;;;;;11.50;100.00;100793.44;5059821;28;20020;-63
2022/10/22 03:06:49;;;;;;;8.32;5.97;;;;;;;11.49;100.00;100789.97;5069234;28;20036;-65
2022/10/22 03:09:14;;;;;;;16.45;7.25;;;;;;;11.46;100.00;100797.66;5069115;28;20028;-64
2022/10/22 03:11:39;;;;;;;10.35;6.30;;;;;;;11.45;100.00;100802.81;5068510;28;20388;-64
2022/10/22 03:14:05;;;;;;;11.23;6.88;;;;;;;11.45;100.00;100802.81;5072099;28;20027;-64
2022/10/22 03:16:30;;;;;;;12.30;6.47;;;;;;;11.44;100.00;100804.50;5080870;28;20032;-64
2022/10/22 03:18:55;;;;;;;12.27;6.30;;;;;;;11.45;100.00;100802.81;5054423;28;20115;-65
2022/10/22 03:21:33;;;;;;;10.52;6.07;;;;;;;11.47;100.00;100794.25;5062736;28;20029;-64
2022/10/22 03:24:01;;;;;;;10.20;6.10;;;;;;;11.50;100.00;100794.31;5062518;28;20114;-64
2022/10/22 03:26:27;;;;;;;11.93;5.95;;;;;;;11.50;100.00;100796.91;5055120;28;20475;-64
2022/10/22 03:28:53;;;;;;;8.95;6.32;;;;;;;11.52;100.00;100796.94;5069082;28;20032;-65
2022/10/22 03:31:18;;;;;;;11.02;5.97;;;;;;;11.55;100.00;100801.34;5068551;28;20489;-64
2022/10/22 03:33:43;;;;;;;8.77;6.57;;;;;;;11.58;100.00;100804.91;5069255;28;20476;-64
2022/10/22 03:36:09;;;;;;;11.80;6.03;;;;;;;11.63;100.00;100815.41;5082797;28;20039;-64
2022/10/22 03:38:37;;;;;;;10.18;6.45;;;;;;;11.66;100.00;100810.28;5068483;28;20109;-64
2022/10/22 03:41:03;;;;;;;11.82;6.55;;;;;;;11.69;100.00;100817.31;5068212;28;20047;-64
2022/10/22 03:43:28;;;;;;;10.07;5.85;;;;;;;11.70;100.00;100817.34;5068138;28;20396;-64
2022/10/22 03:45:53;;;;;;;10.15;5.90;;;;;;;11.71;100.00;100818.22;5080353;28;20034;-65
2022/10/22 03:48:18;;;;;;;16.58;6.15;;;;;;;11.72;100.00;100822.56;5069777;28;20198;-64
2022/10/22 03:50:44;;;;;;;12.60;6.53;;;;;;;11.73;100.00;100826.91;5068318;28;20032;-64
2022/10/22 03:53:09;;;;;;;10.07;6.88;;;;;;;11.74;100.00;100826.97;5054665;28;20109;-64
2022/10/22 03:55:37;;;;;;;11.15;7.25;;;;;;;11.76;100.00;100832.22;5060649;28;20036;-64
2022/10/22 03:58:03;;;;;;;13.52;7.82;;;;;;;11.75;100.00;100833.91;5061990;28;20028;-64
2022/10/22 04:00:28;;;;;;;10.05;8.15;;;;;;;11.76;100.00;100832.22;5060414;28;20081;-64
2022/10/22 04:02:53;;;;;;;11.60;9.63;;;;;;;11.76;100.00;100829.59;5088364;28;20422;-65
2022/10/22 04:05:19;;;;;;;11.05;9.85;;;;;;;11.77;100.00;100833.94;5083627;28;20058;-64
2022/10/22 04:07:44;;;;;;;13.27;11.18;;;;;;;11.77;100.00;100829.66;5067603;28;20091;-64
2022/10/22 04:10:09;;;;;;;16.63;10.77;;;;;;;11.80;100.00;100838.34;5067304;28;20304;-64
2022/10/22 04:12:35;;;;;;;12.80;11.00;;;;;;;11.81;100.00;100832.31;5068070;28;20085;-64
2022/10/22 04:15:00;;;;;;;17.23;11.57;;;;;;;11.82;100.00;100839.28;5069598;28;20357;-64
2022/10/22 04:17:25;;;;;;;17.25;11.35;;;;;;;11.83;100.00;100843.63;5067167;28;20110;-64
2022/10/22 04:19:50;;;;;;;18.27;10.18;;;;;;;11.84;100.00;100840.19;5067470;28;20020;-64
2022/10/22 04:22:16;;;;;;;13.15;10.57;;;;;;;11.86;100.00;100841.09;5054250;28;20035;-64
2022/10/22 04:24:41;;;;;;;12.85;10.32;;;;;;;11.89;100.00;100846.41;5072402;28;20028;-65
2022/10/22 04:27:06;;;;;;;13.23;10.65;;;;;;;11.90;100.00;100845.56;5075943;28;20106;-64
2022/10/22 04:29:32;;;;;;;16.85;10.40;;;;;;;11.91;100.00;100846.44;5067440;28;20020;-64
2022/10/22 04:31:57;;;;;;;13.73;8.65;;;;;;;11.91;100.00;100842.09;5067353;28;20047;-65
2022/10/22 04:34:26;;;;;;;12.32;9.00;;;;;;;11.93;100.00;100840.44;5066845;28;20017;-64
2022/10/22 04:36:51;;;;;;;12.82;9.05;;;;;;;11.93;100.00;100848.22;5066714;28;20032;-64
2022/10/22 04:39:16;;;;;;;14.13;10.85;;;;;;;11.94;100.00;100849.09;5081596;28;20020;-65
2022/10/22 04:41:42;;;;;;;10.93;8.38;;;;;;;11.95;100.00;100843.94;5081188;28;20020;-64
2022/10/22 04:44:07;;;;;;;9.88;7.93;;;;;;;11.94;100.00;100842.22;5067283;28;20051;-64
2022/10/22 04:46:34;;;;;;;12.50;7.95;;;;;;;11.95;100.00;100830.97;5052999;28;20020;-64
2022/10/22 04:49:02;;;;;;;15.35;8.20;;;;;;;11.96;100.00;100845.69;5076723;28;20368;-64
2022/10/22 04:51:27;;;;;;;10.50;6.78;;;;;;;11.97;100.00;100847.47;5070676;28;20033;-64
2022/10/22 04:53:53;;;;;;;11.10;6.65;;;;;;;12.00;100.00;100852.75;5067703;28;20070;-64
2022/10/22 04:56:24;;;;;;;9.50;6.35;;;;;;;11.99;100.00;100856.19;5067857;28;20033;-64
2022/10/22 04:58:50;;;;;;;;;;;;;;;12.00;100.00;100852.75;5054593;28;20078;-64
2022/10/22 05:01:19;;;;;;;8.20;6.75;;;;;;;12.01;100.00;100858.81;5066410;28;20439;-65
2022/10/22 05:03:45;;;;;;;8.73;6.32;;;;;;;12.01;100.00;100856.22;5066341;28;20059;-64
2022/10/22 05:06:12;;;;;;;11.77;6.18;;;;;;;12.02;100.00;100860.56;5067153;28;20024;-64
2022/10/22 05:08:37;;;;;;;10.25;5.47;;;;;;;12.01;100.00;100854.50;5066544;28;20032;-64
2022/10/22 05:11:14;;;;;;;8.02;5.22;;;;;;;12.01;100.00;100853.63;5067092;28;20420;-64
2022/10/22 05:13:39;;;;;;;9.38;5.05;;;;;;;12.03;100.00;100862.34;5066166;28;20023;-64
2022/10/22 05:16:05;;;;;;;9.60;4.40;;;;;;;12.01;100.00;100859.72;5085995;28;20130;-64
2022/10/22 05:18:35;;;;;;;8.20;4.20;;;;;;;12.02;100.00;100860.56;5076076;28;20024;-64
2022/10/22 05:21:02;;;;;;;11.60;4.85;;;;;;;12.03;100.00;100861.44;5066780;28;20451;-64
2022/10/22 05:23:28;;;;;;;16.10;5.15;;;;;;;12.04;100.00;100866.69;5066977;28;20024;-64
2022/10/22 05:25:53;;;;;;;12.75;4.60;;;;;;;12.06;100.00;100861.53;5067731;28;20154;-64
2022/10/22 05:28:18;;;;;;;8.25;4.53;;;;;;;12.09;100.00;100866.78;5079501;28;20032;-64
2022/10/22 05:30:52;;;;;;;10.05;4.85;;;;;;;12.09;100.00;100866.78;5066652;28;20024;-63
2022/10/22 05:33:18;;;;;;;11.40;4.80;;;;;;;12.11;100.00;100872.94;5050602;28;20055;-64
2022/10/22 05:35:43;;;;;;;10.48;5.05;;;;;;;12.11;100.00;100865.16;5058551;28;20033;-63
2022/10/22 05:38:08;;;;;;;10.48;5.57;;;;;;;12.12;100.00;100865.19;5066456;28;20428;-64
2022/10/22 05:40:33;;;;;;;13.20;5.90;;;;;;;12.13;100.00;100869.56;5055996;28;20025;-64
2022/10/22 05:42:59;;;;;;;15.43;6.00;;;;;;;12.15;100.00;100869.59;5059599;28;20044;-63
2022/10/22 05:45:24;;;;;;;12.25;6.57;;;;;;;12.13;100.00;100869.56;5049339;28;20025;-63
2022/10/22 05:47:49;;;;;;;14.77;7.15;;;;;;;12.14;100.00;100875.66;5048750;28;20025;-64
2022/10/22 05:50:15;;;;;;;11.98;6.68;;;;;;;12.15;100.00;100885.19;5051991;28;20187;-63
2022/10/22 05:52:40;;;;;;;13.75;6.13;;;;;;;12.15;100.00;100887.78;5051136;28;20025;-63
2022/10/22 05:55:06;;;;;;;12.93;5.55;;;;;;;12.13;100.00;100884.25;5050744;28;20028;-64
2022/10/22 05:57:31;;;;;;;8.25;5.00;;;;;;;12.13;100.00;100892.06;5049944;28;20043;-64
2022/10/22 05:59:56;;;;;;;12.23;5.82;;;;;;;12.12;100.00;100892.91;5051752;28;20111;-64
2022/10/22 06:02:22;;;;;;;13.73;5.88;;;;;;;12.11;100.00;100896.31;5052678;28;20362;-64
2022/10/22 06:04:47;;;;;;;15.65;5.72;;;;;;;12.10;100.00;100894.56;5047898;28;20036;-64
2022/10/22 06:07:14;;;;;;;13.07;5.88;;;;;;;12.08;100.00;100907.50;5046849;28;20025;-63
2022/10/22 06:09:40;;;;;;;12.25;6.00;;;;;;;12.07;100.00;100907.47;5046633;28;20303;-63
2022/10/22 06:12:09;;;;;;;9.82;6.50;;;;;;;12.06;100.00;100908.28;5052631;28;20051;-64
2022/10/22 06:14:34;;;;;;;12.73;6.50;;;;;;;12.06;100.00;100913.47;5050368;28;20045;-64
2022/10/22 06:17:00;;;;;;;15.23;7.25;;;;;;;12.04;100.00;100915.16;5047769;28;20076;-64
2022/10/22 06:19:26;;;;;;;15.05;7.28;;;;;;;12.03;100.00;100922.09;5047108;28;20449;-64
2022/10/22 06:21:52;;;;;;;9.93;5.95;;;;;;;12.01;100.00;100916.84;5050792;28;20464;-64
2022/10/22 06:24:17;;;;;;;12.25;6.15;;;;;;;12.01;100.00;100922.03;5049824;28;20136;-64
2022/10/22 06:26:43;;;;;;;14.93;6.70;;;;;;;12.01;100.00;100932.44;5047970;28;20025;-64
2022/10/22 06:29:09;;;;;;;13.48;5.82;;;;;;;12.01;100.00;100929.84;5048349;28;20032;-64
2022/10/22 06:31:37;;;;;;;11.90;5.53;;;;;;;12.01;100.00;100937.63;5054545;28;20159;-64
2022/10/22 06:34:04;;;;;;;17.00;6.55;;;;;;;12.03;100.00;100934.19;5048097;28;20427;-64
2022/10/22 06:36:30;;;;;;;9.95;4.50;;;;;;;12.03;100.00;100937.66;5050733;28;20028;-64
2022/10/22 06:38:55;;;;;;;13.80;5.90;;;;;;;12.05;100.00;100942.91;5048355;28;20191;-64
2022/10/22 06:41:21;;;;;;;13.50;5.35;;;;;;;12.04;100.00;100951.50;5049293;28;20035;-63
2022/10/22 06:43:47;;;;;;;19.65;5.22;;;;;;;12.04;100.00;100951.50;5053227;28;20057;-64
2022/10/22 06:46:18;;;;;;;13.02;4.82;;;;;;;12.05;100.00;100963.69;5049245;28;20075;-64
2022/10/22 06:48:48;;;;;;;15.95;4.50;;;;;;;12.05;100.00;100963.69;5050590;28;20025;-65
2022/10/22 06:51:13;;;;;;;10.82;4.60;;;;;;;12.06;100.00;100962.81;5050261;28;20025;-65
2022/10/22 06:53:39;;;;;;;10.63;4.38;;;;;;;12.07;100.00;100975.00;5050992;28;20240;-65
2022/10/22 06:56:06;;;;;;;13.57;4.20;;;;;;;12.09;100.00;100973.28;5055834;28;20024;-65
2022/10/22 06:58:32;;;;;;;11.60;3.97;;;;;;;12.11;100.00;100976.84;5053161;28;20159;-64
2022/10/22 07:01:03;;;;;;;12.43;4.43;;;;;;;12.12;100.00;100982.09;5052043;28;20020;-64
2022/10/22 07:03:28;;;;;;;10.13;3.95;;;;;;;12.13;100.00;100985.56;5049435;28;20935;-65
2022/10/22 07:05:54;;;;;;;12.05;4.50;;;;;;;12.13;100.00;100993.34;5048615;28;20017;-64
2022/10/22 07:08:19;;;;;;;13.70;4.75;;;;;;;12.14;100.00;100992.53;5049119;28;20028;-65
2022/10/22 07:10:44;;;;;;;12.60;5.03;;;;;;;12.13;100.00;100999.44;5057311;28;20028;-65
2022/10/22 07:13:09;;;;;;;14.60;5.20;;;;;;;12.15;100.00;101003.78;5069134;28;20582;-65
2022/10/22 07:15:35;;;;;;;10.20;4.00;;;;;;;12.16;100.00;101003.81;5052505;28;20453;-65
2022/10/22 07:18:03;;;;;;;14.35;4.50;;;;;;;12.20;100.00;101010.00;5068518;28;20472;-65
2022/10/22 07:20:28;;;;;;;10.77;5.05;;;;;;;12.24;100.00;101006.66;5062856;28;20147;-64
2022/10/22 07:22:54;;;;;;;13.98;5.45;;;;;;;12.28;100.00;101012.81;5060551;28;20163;-65
2022/10/22 07:25:19;;;;;;;13.48;5.45;;;;;;;12.34;100.00;101010.41;5072761;28;20041;-65
2022/10/22 07:27:44;;;;;;;14.25;4.63;;;;;;;12.39;100.00;101016.59;5081346;28;20164;-65
2022/10/22 07:30:10;;;;;;;14.05;5.22;;;;;;;12.44;100.00;101020.19;5073525;28;20578;-66
2022/10/22 07:32:36;;;;;;;15.15;5.47;;;;;;;12.49;100.00;101016.00;5055959;28;20021;-65
2022/10/22 07:35:01;;;;;;;20.05;6.13;;;;;;;12.54;100.00;101023.91;5061712;28;20016;-65
2022/10/22 07:37:26;;;;;;;18.90;6.82;;;;;;;12.58;100.00;101027.47;5068208;28;20104;-65
2022/10/22 07:39:51;;;;;;;13.75;5.13;;;;;;;12.62;100.00;101034.53;5066623;28;20016;-65
2022/10/22 07:42:17;;;;;;;13.18;4.88;;;;;;;12.65;100.00;101039.81;5072197;28;20028;-65
2022/10/22 07:44:42;;;;;;;11.10;4.82;;;;;;;12.67;100.00;101032.94;5060526;28;20037;-65
2022/10/22 07:47:07;;;;;;;13.38;4.63;;;;;;;12.70;100.00;101048.59;5058767;28;20122;-65
2022/10/22 07:49:32;;;;;;;11.00;4.20;;;;;;;12.72;100.00;101046.94;5070244;28;20028;-66
2022/10/22 07:51:58;;;;;;;10.07;5.15;;;;;;;12.75;100.00;101047.84;5074806;28;20027;-65
2022/10/22 07:54:23;;;;;;;17.85;4.30;;;;;;;12.80;100.00;101048.84;5071422;28;20024;-65
2022/10/22 07:56:49;;;;;;;13.68;4.78;;;;;;;12.84;100.00;101050.69;5067859;28;20024;-65
2022/10/22 07:59:14;;;;;;;15.40;4.30;;;;;;;12.90;100.00;101055.19;5070530;28;20028;-65
2022/10/22 08:01:40;;;;;;;13.77;4.82;;;;;;;12.96;100.00;101056.22;5048270;28;20024;-65
2022/10/22 08:04:07;;;;;;;12.27;4.47;;;;;;;13.04;100.00;101064.19;5049673;28;20056;-65
2022/10/22 08:06:33;;;;;;;14.57;4.22;;;;;;;13.08;100.00;101063.44;5046603;28;20029;-66
2022/10/22 08:08:58;;;;;;;14.30;3.80;;;;;;;13.12;100.00;101061.78;5052815;28;20036;-65
2022/10/22 08:11:24;;;;;;;10.98;4.00;;;;;;;13.17;100.00;101070.59;5069206;28;20032;-65
2022/10/22 08:13:49;;;;;;;6.35;3.45;;;;;;;13.23;100.00;101074.19;5062713;28;20403;-66
2022/10/22 08:16:14;;;;;;;17.67;4.40;;;;;;;13.23;100.00;101069.88;5080270;28;20651;-65
2022/10/22 08:18:40;;;;;;;13.23;3.80;;;;;;;13.30;100.00;101074.38;5078009;28;20024;-65
2022/10/22 08:21:05;;;;;;;11.38;3.30;;;;;;;13.38;100.00;101078.91;5064896;28;20440;-65
2022/10/22 08:23:30;;;;;;;9.73;3.97;;;;;;;13.49;100.00;101071.34;5052573;28;20477;-65
2022/10/22 08:25:56;;;;;;;13.18;3.78;;;;;;;13.59;100.00;101078.56;5061569;28;20423;-65
2022/10/22 08:28:21;;;;;;;15.15;3.63;;;;;;;13.70;100.00;101078.81;5067235;28;20031;-65
2022/10/22 08:30:47;;;;;;;9.13;3.30;;;;;;;13.79;100.00;101086.84;5054279;28;20033;-66
2022/10/22 08:33:12;;;;;;;7.60;3.05;;;;;;;13.93;100.00;101094.06;5052780;28;20711;-66
2022/10/22 08:35:38;;;;;;;12.05;3.13;;;;;;;14.12;100.00;101084.06;5048204;28;20029;-65
2022/10/22 08:38:03;;;;;;;8.10;2.50;;;;;;;14.22;100.00;101095.53;5071628;28;20064;-65
2022/10/22 08:40:36;;;;;;;10.10;2.67;;;;;;;14.40;100.00;101101.16;5067134;28;20457;-65
2022/10/22 08:43:30;;;;;;;6.53;2.28;;;;;;;14.55;100.00;101097.09;5057932;28;20055;-64
2022/10/22 08:46:28;;;;;;;7.72;2.72;;;;;;;14.77;100.00;101105.31;5059819;28;20083;-64
2022/10/22 08:48:57;;;;;;;10.73;3.15;;;;;;;14.85;100.00;101109.00;5051102;28;20036;-64
2022/10/22 08:51:26;;;;;;;8.98;2.28;;;;;;;14.87;100.00;101120.34;5060185;28;20099;-64
2022/10/22 08:54:13;;;;;;;8.25;2.13;;;;;;;14.88;100.00;101119.47;5060206;28;20457;-64
2022/10/22 08:56:43;;;;;;;4.63;2.00;;;;;;;14.85;100.00;101129.88;5061824;28;20070;-64
2022/10/22 08:59:19;;;;;;;5.90;2.17;;;;;;;14.85;100.00;101127.25;5065315;28;20073;-64
2022/10/22 09:01:47;;;;;;;5.50;2.05;;;;;;;14.83;100.00;101131.56;5065433;28;20456;-64
2022/10/22 09:04:16;;;;;;;6.60;1.75;;;;;;;14.79;100.00;101132.31;5064917;28;20377;-65
2022/10/22 09:06:46;;;;;;;4.50;1.40;;;;;;;14.76;100.00;101140.06;5051038;28;20227;-64
2022/10/22 09:09:15;;;;;;;9.10;1.40;;;;;;;14.71;100.00;101136.50;5065344;28;20047;-65
2022/10/22 09:11:46;;;;;;;7.28;1.90;;;;;;;14.70;100.00;101147.78;5064405;28;20016;-64
2022/10/22 09:14:31;;;;;;;5.90;2.00;;;;;;;14.69;100.00;101149.53;5060288;28;20797;-64
2022/10/22 09:17:20;;;;;;;6.30;1.90;;;;;;;14.67;100.00;101151.22;5051041;28;20127;-65
2022/10/22 09:20:03;;;;;;;4.35;1.23;;;;;;;14.65;100.00;101150.28;5056347;28;20028;-64
2022/10/22 09:22:41;;;;;;;6.18;1.52;;;;;;;14.62;100.00;101158.97;5060815;28;20034;-63
2022/10/22 09:25:27;;;;;;;8.60;1.95;;;;;;;14.61;100.00;101167.59;5057309;28;20063;-64
2022/10/22 09:27:57;;;;;;;6.88;1.42;;;;;;;14.59;100.00;101168.44;5058399;28;20059;-63
2022/10/22 09:30:28;;;;;;;5.07;1.45;;;;;;;14.57;100.00;101171.00;5052075;28;20100;-64
2022/10/22 09:33:13;;;;;;;9.23;1.95;;;;;;;14.54;100.00;101176.16;5063524;28;20036;-64
2022/10/22 09:35:50;;;;;;;8.10;1.75;;;;;;;14.51;100.00;101171.78;5049720;28;20110;-64
2022/10/22 09:38:18;;;;;;;8.30;1.88;;;;;;;14.52;100.00;101178.72;5050817;28;20043;-65
2022/10/22 09:40:55;;;;;;;8.20;2.65;;;;;;;14.55;100.00;101188.34;5047960;28;20044;-64
2022/10/22 09:43:20;;;;;;;6.80;1.70;;;;;;;14.55;100.00;101180.53;5048055;28;20621;-63
2022/10/22 09:45:47;;;;;;;4.57;1.70;;;;;;;14.55;100.00;101185.75;5046600;28;20025;-64
2022/10/22 09:48:13;;;;;;;5.55;1.63;;;;;;;14.58;100.00;101192.75;5048397;28;20021;-64
2022/10/22 09:50:43;;;;;;;5.85;1.60;;;;;;;14.57;100.00;101191.84;5048086;28;20028;-64
2022/10/22 09:53:24;;;;;;;9.15;2.10;;;;;;;14.61;100.00;101198.91;5050587;28;20103;-65
2022/10/22 09:55:56;;;;;;;9.23;1.90;;;;;;;14.65;100.00;101203.34;5063523;28;20035;-64
2022/10/22 09:58:22;;;;;;;9.68;2.15;;;;;;;14.70;100.00;101202.53;5053879;28;20029;-64
2022/10/22 10:00:56;;;;;;;7.35;1.75;;;;;;;14.75;100.00;101209.63;5067148;28;20345;-64
2022/10/22 10:03:25;;;;;;;5.75;1.55;;;;;;;14.79;100.00;101210.56;5078715;28;20052;-63
2022/10/22 10:05:57;;;;;;;7.35;1.90;;;;;;;14.81;100.00;101216.72;5066191;28;20139;-64
2022/10/22 10:08:23;;;;;;;8.73;2.03;;;;;;;14.82;100.00;101222.84;5064981;28;20029;-64
2022/10/22 10:10:58;;;;;;;8.75;1.95;;;;;;;14.80;100.00;101221.88;5057271;28;20031;-64
2022/10/22 10:13:33;;;;;;;5.43;1.63;;;;;;;14.79;100.00;101234.03;5057939;28;20024;-63
2022/10/22 10:16:04;;;;;;;3.90;1.98;;;;;;;14.80;100.00;101228.00;5078358;28;20021;-64
2022/10/22 10:18:54;;;;;;;5.28;1.65;;;;;;;14.85;100.00;101248.97;5051542;28;20477;-64
2022/10/22 10:21:56;;;;;;;8.18;2.25;;;;;;;14.87;100.00;101242.06;5062853;28;20027;-64
2022/10/22 10:24:30;;;;;;;7.82;1.63;;;;;;;14.92;100.00;101239.53;5044966;28;20900;-65
2022/10/22 10:27:21;;;;;;;11.88;2.55;;;;;;;14.95;100.00;101244.84;5045861;28;20028;-64
2022/10/22 10:30:10;;;;;;;7.93;2.10;;;;;;;14.95;100.00;101245.69;5046295;28;20082;-64
2022/10/22 10:33:04;;;;;;;7.53;2.08;;;;;;;14.97;100.00;101246.63;5073719;28;20048;-66
2022/10/22 10:35:58;;;;;;;8.73;2.28;;;;;;;15.07;100.00;101247.69;5057070;28;20032;-65
2022/10/22 10:39:18;;;;;;;8.93;1.85;;;;;;;15.13;100.00;101250.41;5056493;28;20051;-65
2022/10/22 10:41:53;;;;;;;7.70;2.17;;;;;;;15.18;100.00;101250.50;5039041;28;20466;-65
2022/10/22 10:44:56;;;;;;;6.40;1.98;;;;;;;15.25;100.00;101259.34;5076835;28;20048;-65
2022/10/22 10:47:59;;;;;;;7.45;1.92;;;;;;;15.29;100.00;101255.91;5069761;28;20034;-65
2022/10/22 10:50:39;;;;;;;5.47;1.58;;;;;;;15.31;100.00;101256.84;5054597;28;20056;-65
2022/10/22 10:53:42;;;;;;;6.97;1.95;;;;;;;15.33;100.00;101260.34;5051006;28;20033;-66
2022/10/22 10:56:34;;;;;;;8.10;2.35;;;;;;;15.35;100.00;101260.38;5049214;28;20392;-65
2022/10/22 10:59:23;;;;;;;4.88;1.67;;;;;;;15.40;100.00;101257.88;5049025;28;20020;-65
2022/10/22 11:02:10;;;;;;;6.65;2.08;;;;;;;15.49;100.00;101261.53;5053540;28;20039;-66
2022/10/22 11:05:03;;;;;;;6.80;2.20;;;;;;;15.58;100.00;101257.31;5049104;28;20047;-65
2022/10/22 11:07:42;;;;;;;6.22;2.22;;;;;;;15.69;100.00;101252.28;5049735;28;20031;-65
2022/10/22 11:10:26;;;;;;;5.53;1.92;;;;;;;15.78;100.00;101244.59;5052475;28;20033;-66
2022/10/22 11:12:59;;;;;;;7.57;2.10;;;;;;;15.88;100.00;101250.88;5052832;28;20033;-65
2022/10/22 11:15:29;;;;;;;6.88;1.88;;;;;;;15.98;100.00;101257.13;5049609;28;20556;-65
2022/10/22 11:18:06;;;;;;;6.53;2.13;;;;;;;15.95;100.00;101257.06;5064447;28;20020;-66
2022/10/22 11:21:03;;;;;;;10.23;2.30;;;;;;;15.95;100.00;101255.34;5053676;28;20461;-66
2022/10/22 11:23:35;;;;;;;7.78;1.98;;;;;;;15.94;100.00;101260.53;5049088;28;20355;-65
2022/10/22 11:26:04;;;;;;;7.78;1.70;;;;;;;15.95;100.00;101268.41;5060774;28;20020;-65